Time;durP1;ratioP1;P1;durP2;ratioP2;P2;SDS_P1;SDS_P2;PMS_P1;PMS_P2;Temp;Humidity;BMP_temperature;BMP_pressure;BME280_temperature;BME280_humidity;BME280_pressure;Samples;Min_cycle;Max_cycle;Signal;HPM_P1;HPM_P2
2023/12/27 05:05:34;;;;;;;0.30;0.30;;;7.90;99.90;;;;;;5801159;23;20232;-75
2023/12/27 05:08:00;;;;;;;0.30;0.30;;;7.90;99.90;;;;;;4938168;29;20197;-69
2023/12/27 05:10:25;;;;;;;0.40;0.40;;;7.90;99.90;;;;;;4938619;29;20186;-70
2023/12/27 05:12:53;;;;;;;0.30;0.30;;;7.90;99.90;;;;;;4946803;29;20201;-70
2023/12/27 05:15:19;;;;;;;0.60;0.50;;;7.90;99.90;;;;;;4939288;29;20198;-71
2023/12/27 05:17:45;;;;;;;0.30;0.30;;;7.80;99.90;;;;;;4939843;29;20268;-72
2023/12/27 05:20:11;;;;;;;0.30;0.30;;;7.80;99.90;;;;;;4938112;29;20421;-70
2023/12/27 05:22:39;;;;;;;0.30;0.30;;;7.80;99.90;;;;;;4939369;29;20166;-70
2023/12/27 05:25:07;;;;;;;0.30;0.30;;;7.80;99.90;;;;;;4937637;29;20677;-70
2023/12/27 05:27:32;;;;;;;0.40;0.40;;;7.70;99.90;;;;;;4939393;29;20173;-71
2023/12/27 05:29:58;;;;;;;0.30;0.30;;;7.70;99.90;;;;;;4936917;29;20181;-70
2023/12/27 05:32:24;;;;;;;0.30;0.30;;;7.70;99.90;;;;;;4931634;29;20174;-70
2023/12/27 05:34:54;;;;;;;0.30;0.30;;;7.70;99.90;;;;;;4917959;29;20192;-71
2023/12/27 05:37:20;;;;;;;0.30;0.30;;;7.60;99.90;;;;;;4923540;29;20177;-72
2023/12/27 05:39:46;;;;;;;0.40;0.40;;;7.50;99.90;;;;;;4938706;29;20187;-70
2023/12/27 05:42:13;;;;;;;0.30;0.30;;;7.40;99.90;;;;;;4938767;29;20704;-70
2023/12/27 05:44:39;;;;;;;0.30;0.30;;;7.40;99.90;;;;;;4921347;29;20414;-69
2023/12/27 05:47:05;;;;;;;0.40;0.40;;;7.30;99.90;;;;;;4937695;29;20210;-71
2023/12/27 05:49:31;;;;;;;0.33;0.33;;;7.30;99.90;;;;;;4937914;29;20252;-69
2023/12/27 05:51:56;;;;;;;0.30;0.30;;;7.20;99.90;;;;;;4935266;29;20535;-71
2023/12/27 05:54:23;;;;;;;0.30;0.30;;;7.20;99.90;;;;;;4919440;29;20229;-69
2023/12/27 05:56:49;;;;;;;0.40;0.40;;;7.10;99.90;;;;;;4919127;29;20253;-72
2023/12/27 05:59:15;;;;;;;0.30;0.30;;;7.10;99.90;;;;;;4919666;29;20204;-70
2023/12/27 06:01:49;;;;;;;0.30;0.30;;;7.10;99.90;;;;;;4936584;29;20279;-72
2023/12/27 06:04:15;;;;;;;0.40;0.40;;;7.10;99.90;;;;;;4938572;29;20174;-70
2023/12/27 06:06:41;;;;;;;0.30;0.30;;;7.10;99.90;;;;;;4938136;29;20621;-70
2023/12/27 06:09:07;;;;;;;1.53;1.53;;;7.00;99.90;;;;;;4938713;29;20170;-69
2023/12/27 06:11:32;;;;;;;0.30;0.30;;;7.00;99.90;;;;;;4937915;29;20185;-70
2023/12/27 06:13:58;;;;;;;0.30;0.30;;;7.00;99.90;;;;;;4937929;29;20484;-73
2023/12/27 06:16:24;;;;;;;0.30;0.30;;;7.00;99.90;;;;;;4937892;29;20677;-69
2023/12/27 06:18:54;;;;;;;0.30;0.30;;;7.00;99.90;;;;;;4938363;29;20213;-68
2023/12/27 06:21:20;;;;;;;0.30;0.30;;;7.00;99.90;;;;;;4927843;29;20705;-70
2023/12/27 06:23:45;;;;;;;0.40;0.40;;;7.00;99.90;;;;;;4919420;29;20261;-70
2023/12/27 06:26:11;;;;;;;0.80;0.60;;;7.00;99.90;;;;;;4925205;29;20563;-69
2023/12/27 06:28:37;;;;;;;0.47;0.47;;;6.90;99.90;;;;;;4938005;29;20174;-71
2023/12/27 06:31:02;;;;;;;0.30;0.30;;;6.90;99.90;;;;;;4932687;29;20190;-70
2023/12/27 06:33:28;;;;;;;0.30;0.30;;;6.90;99.90;;;;;;4919376;29;20631;-70
2023/12/27 06:35:53;;;;;;;0.30;0.30;;;6.80;99.90;;;;;;4918463;29;20206;-72
2023/12/27 06:38:19;;;;;;;0.40;0.40;;;6.80;99.90;;;;;;4919004;29;20201;-72
2023/12/27 06:40:45;;;;;;;0.30;0.30;;;6.80;99.90;;;;;;4917650;29;20185;-70
2023/12/27 06:43:10;;;;;;;0.30;0.30;;;6.80;99.90;;;;;;4931966;29;20232;-70
2023/12/27 06:45:36;;;;;;;0.30;0.30;;;6.80;99.90;;;;;;4937103;29;20205;-70
2023/12/27 06:48:02;;;;;;;0.30;0.30;;;6.80;99.90;;;;;;4937347;29;20424;-70
2023/12/27 06:50:28;;;;;;;0.40;0.40;;;6.70;99.90;;;;;;4937807;29;20753;-69
2023/12/27 06:52:55;;;;;;;0.30;0.30;;;6.70;99.90;;;;;;4937101;29;20677;-71
2023/12/27 06:55:21;;;;;;;0.40;0.40;;;6.70;99.90;;;;;;4935938;29;20685;-70
2023/12/27 06:57:47;;;;;;;0.30;0.30;;;6.70;99.90;;;;;;4937352;29;20196;-69
2023/12/27 07:00:13;;;;;;;0.40;0.40;;;6.70;99.90;;;;;;4937628;29;20758;-69
2023/12/27 07:02:39;;;;;;;0.30;0.30;;;6.70;99.90;;;;;;4934464;29;20282;-69
2023/12/27 07:05:06;;;;;;;0.30;0.30;;;6.70;99.90;;;;;;4917871;29;20614;-71
2023/12/27 07:07:32;;;;;;;0.40;0.40;;;6.70;99.90;;;;;;4917175;29;20193;-70
2023/12/27 07:09:58;;;;;;;0.30;0.30;;;6.60;99.90;;;;;;4918391;29;20190;-69
2023/12/27 07:12:23;;;;;;;0.40;0.40;;;6.70;99.90;;;;;;4917990;29;20170;-70
2023/12/27 07:14:49;;;;;;;0.30;0.30;;;6.70;99.90;;;;;;4927940;29;20958;-72
2023/12/27 07:17:15;;;;;;;0.30;0.30;;;6.70;99.90;;;;;;4936793;29;20208;-69
2023/12/27 07:19:41;;;;;;;0.30;0.30;;;6.80;99.90;;;;;;4923235;29;20186;-71
2023/12/27 07:22:06;;;;;;;0.37;0.37;;;6.80;99.90;;;;;;4933437;29;20256;-70
2023/12/27 07:24:32;;;;;;;0.30;0.30;;;6.80;99.90;;;;;;4946664;29;20263;-69
2023/12/27 07:26:58;;;;;;;0.40;0.40;;;6.80;99.90;;;;;;4955661;28;20601;-73
2023/12/27 07:29:24;;;;;;;0.30;0.30;;;6.80;99.90;;;;;;4948257;29;20412;-70
2023/12/27 07:31:49;;;;;;;0.30;0.30;;;6.80;99.90;;;;;;4936323;29;20256;-70
2023/12/27 07:34:16;;;;;;;0.30;0.30;;;6.90;99.90;;;;;;4930297;29;20237;-71
2023/12/27 07:36:41;;;;;;;0.40;0.40;;;7.00;99.90;;;;;;4917591;29;20670;-69
2023/12/27 07:39:09;;;;;;;0.40;0.40;;;7.00;99.90;;;;;;4917458;29;20178;-67
2023/12/27 07:41:35;;;;;;;0.30;0.30;;;7.10;99.90;;;;;;4917850;29;20637;-69
2023/12/27 07:44:01;;;;;;;0.30;0.30;;;7.10;99.90;;;;;;4927719;29;20181;-69
2023/12/27 07:46:27;;;;;;;0.30;0.30;;;7.00;99.90;;;;;;4936288;29;20961;-68
2023/12/27 07:48:53;;;;;;;0.40;0.40;;;7.00;99.90;;;;;;4936489;29;20421;-70
2023/12/27 07:51:19;;;;;;;0.30;0.30;;;7.00;99.90;;;;;;4936547;29;20172;-69
2023/12/27 07:53:45;;;;;;;0.30;0.30;;;7.00;99.90;;;;;;4936129;29;20689;-68
2023/12/27 07:56:12;;;;;;;0.30;0.30;;;7.00;99.90;;;;;;4935759;29;20193;-71
2023/12/27 07:58:38;;;;;;;0.30;0.30;;;7.00;99.90;;;;;;4933791;29;20581;-69
2023/12/27 08:01:03;;;;;;;0.30;0.30;;;6.90;99.90;;;;;;4925595;29;20212;-69
2023/12/27 08:03:29;;;;;;;0.30;0.30;;;6.90;99.90;;;;;;4935481;29;20177;-69
2023/12/27 08:05:54;;;;;;;1.33;1.23;;;6.90;99.90;;;;;;4921423;29;20205;-70
2023/12/27 08:08:20;;;;;;;0.30;0.30;;;6.90;99.90;;;;;;4917116;29;20188;-69
2023/12/27 08:10:46;;;;;;;0.40;0.40;;;7.00;99.90;;;;;;4917610;29;20166;-70
2023/12/27 08:13:11;;;;;;;0.30;0.30;;;7.10;99.90;;;;;;4917070;29;20186;-69
2023/12/27 08:15:37;;;;;;;0.30;0.30;;;7.10;99.90;;;;;;4921018;29;20570;-69
2023/12/27 08:18:03;;;;;;;0.30;0.30;;;7.20;99.90;;;;;;4925616;29;20201;-71
2023/12/27 08:20:30;;;;;;;0.30;0.30;;;7.20;99.90;;;;;;4935608;29;20173;-71
2023/12/27 08:22:55;;;;;;;0.30;0.30;;;7.20;99.90;;;;;;4935504;29;20192;-64
2023/12/27 08:25:21;;;;;;;0.30;0.30;;;7.30;99.90;;;;;;4935073;29;20627;-67
2023/12/27 08:27:46;;;;;;;0.30;0.30;;;7.40;99.90;;;;;;4934742;29;20189;-67
2023/12/27 08:30:13;;;;;;;0.30;0.30;;;7.40;99.90;;;;;;4920117;29;20240;-66
2023/12/27 08:32:39;;;;;;;0.40;0.40;;;7.50;99.90;;;;;;4916902;29;20174;-68
2023/12/27 08:35:05;;;;;;;0.30;0.30;;;7.60;99.90;;;;;;4935213;29;20225;-71
2023/12/27 08:37:30;;;;;;;0.30;0.30;;;7.80;99.90;;;;;;4934666;29;20421;-69
2023/12/27 08:39:56;;;;;;;0.30;0.20;;;8.00;99.90;;;;;;4935907;29;20252;-68
2023/12/27 08:42:22;;;;;;;0.30;0.30;;;8.20;99.90;;;;;;4935459;29;20689;-71
2023/12/27 08:44:47;;;;;;;0.30;0.20;;;8.30;99.90;;;;;;4930532;29;20221;-72
2023/12/27 08:47:14;;;;;;;0.30;0.30;;;8.40;99.90;;;;;;4917673;29;20294;-70
2023/12/27 08:49:39;;;;;;;0.30;0.30;;;8.50;99.90;;;;;;4921032;29;20178;-71
2023/12/27 08:52:05;;;;;;;0.40;0.40;;;8.60;99.90;;;;;;4934698;29;20174;-73
2023/12/27 08:54:31;;;;;;;0.30;0.30;;;8.60;99.90;;;;;;4937345;29;20182;-73
2023/12/27 09:00:21;;;;;;;0.30;0.30;;;8.60;99.90;;;;;;4928864;29;20193;-73
2023/12/27 09:02:47;;;;;;;0.30;0.30;;;8.60;99.90;;;;;;4926518;29;20716;-71
2023/12/27 09:05:13;;;;;;;0.30;0.30;;;8.60;99.90;;;;;;4925805;29;20213;-70
2023/12/27 09:07:39;;;;;;;0.30;0.30;;;8.70;99.90;;;;;;4914657;29;20243;-71
2023/12/27 09:10:04;;;;;;;0.30;0.30;;;9.00;99.90;;;;;;4915191;29;20648;-74
2023/12/27 09:12:30;;;;;;;0.30;0.30;;;9.60;99.90;;;;;;4915258;29;20184;-71
2023/12/27 09:14:56;;;;;;;0.30;0.30;;;10.40;99.90;;;;;;4921907;29;20424;-73
2023/12/27 09:17:22;;;;;;;0.40;0.40;;;11.00;99.90;;;;;;4935442;29;20252;-74
2023/12/27 09:19:47;;;;;;;0.30;0.30;;;11.60;99.90;;;;;;4929197;29;20187;-73
2023/12/27 09:22:13;;;;;;;0.30;0.20;;;11.80;99.90;;;;;;4914610;29;20613;-74
2023/12/27 09:24:41;;;;;;;0.30;0.30;;;12.10;99.90;;;;;;4914349;29;20479;-73
2023/12/27 09:27:06;;;;;;;0.30;0.30;;;12.30;99.90;;;;;;4914363;29;20199;-71
2023/12/27 09:29:32;;;;;;;0.30;0.20;;;12.50;99.90;;;;;;4914579;29;20426;-71
2023/12/27 09:31:58;;;;;;;0.63;0.63;;;12.80;99.90;;;;;;4916740;29;20179;-72
2023/12/27 09:34:23;;;;;;;0.40;0.40;;;13.30;99.90;;;;;;4922433;29;20175;-71
2023/12/27 09:36:49;;;;;;;0.30;0.20;;;13.80;99.90;;;;;;4938948;29;20200;-71
2023/12/27 09:39:15;;;;;;;0.30;0.30;;;14.20;99.90;;;;;;4938620;29;20273;-72
2023/12/27 09:41:40;;;;;;;0.30;0.30;;;14.70;99.90;;;;;;4939021;29;20194;-74
2023/12/27 09:44:19;;;;;;;0.30;0.20;;;14.90;99.90;;;;;;4935245;29;20234;-72
2023/12/27 09:46:45;;;;;;;0.30;0.30;;;14.80;99.90;;;;;;4920257;29;20469;-72
2023/12/27 09:49:12;;;;;;;0.30;0.30;;;14.50;99.90;;;;;;4922155;29;20388;-70
2023/12/27 09:51:39;;;;;;;0.30;0.30;;;14.20;99.90;;;;;;4938775;29;20172;-70
2023/12/27 09:54:05;;;;;;;0.30;0.30;;;14.10;99.90;;;;;;4935377;29;20433;-72
2023/12/27 09:56:31;;;;;;;1.17;0.60;;;14.30;99.90;;;;;;4919450;29;20411;-71
2023/12/27 09:59:04;;;;;;;0.30;0.30;;;14.60;99.90;;;;;;4919866;29;20779;-71
2023/12/27 10:01:34;;;;;;;0.30;0.20;;;14.90;99.90;;;;;;4919732;29;20422;-70
2023/12/27 10:04:17;;;;;;;0.30;0.30;;;15.30;99.90;;;;;;4919615;29;20426;-72
2023/12/27 10:06:49;;;;;;;0.30;0.30;;;15.60;99.90;;;;;;4918402;29;20448;-72
2023/12/27 10:09:14;;;;;;;0.30;0.30;;;15.80;99.90;;;;;;4919637;29;20410;-72
2023/12/27 10:11:44;;;;;;;0.30;0.20;;;16.00;98.80;;;;;;4919360;29;20422;-72
2023/12/27 10:14:10;;;;;;;0.40;0.40;;;16.20;97.10;;;;;;4922020;29;20203;-74
2023/12/27 10:16:39;;;;;;;0.30;0.20;;;16.50;95.10;;;;;;4938368;29;20445;-71
2023/12/27 10:19:05;;;;;;;1.43;1.43;;;16.70;95.10;;;;;;4938133;29;20426;-74
2023/12/27 10:21:42;;;;;;;0.30;0.20;;;16.90;94.80;;;;;;4937196;29;20410;-72
2023/12/27 10:24:09;;;;;;;0.30;0.20;;;17.00;93.80;;;;;;4937435;29;20387;-74
2023/12/27 10:26:35;;;;;;;0.30;0.30;;;17.00;93.60;;;;;;4938017;29;20537;-73
2023/12/27 10:29:01;;;;;;;0.30;0.20;;;17.10;93.60;;;;;;4937742;29;20470;-73
2023/12/27 10:31:27;;;;;;;0.30;0.20;;;17.10;92.60;;;;;;4937657;29;20381;-71
2023/12/27 10:33:53;;;;;;;0.30;0.20;;;17.00;91.90;;;;;;4937853;29;20409;-74
2023/12/27 10:36:20;;;;;;;0.40;0.40;;;16.60;92.00;;;;;;4937427;29;20233;-72
2023/12/27 10:38:46;;;;;;;0.30;0.20;;;16.00;91.80;;;;;;4923549;29;20187;-71
2023/12/27 10:41:11;;;;;;;0.30;0.20;;;15.30;93.10;;;;;;4917621;29;20417;-71
2023/12/27 10:43:37;;;;;;;0.30;0.30;;;14.70;93.60;;;;;;4918692;29;20210;-71
2023/12/27 10:46:09;;;;;;;0.30;0.30;;;14.20;94.70;;;;;;4918374;29;20207;-71
2023/12/27 10:48:39;;;;;;;0.87;0.40;;;14.10;94.60;;;;;;4918751;29;20587;-74
2023/12/27 10:51:09;;;;;;;0.30;0.20;;;14.20;95.40;;;;;;4918939;29;20414;-71
2023/12/27 10:53:35;;;;;;;0.30;0.30;;;14.40;95.30;;;;;;4931373;29;20422;-70
2023/12/27 10:56:03;;;;;;;0.30;0.30;;;14.70;95.10;;;;;;4937244;29;20468;-73
2023/12/27 10:58:31;;;;;;;0.30;0.30;;;14.80;94.00;;;;;;4925830;29;20418;-70
2023/12/27 11:00:58;;;;;;;0.30;0.30;;;15.00;94.50;;;;;;4918575;29;20966;-71
2023/12/27 11:03:25;;;;;;;0.30;0.30;;;15.30;93.70;;;;;;4916981;29;20423;-73
2023/12/27 11:05:51;;;;;;;0.80;0.77;;;15.30;92.40;;;;;;4917808;29;20436;-72
2023/12/27 11:08:18;;;;;;;0.30;0.30;;;15.10;92.10;;;;;;4927441;29;20445;-72
2023/12/27 11:10:45;;;;;;;0.30;0.30;;;15.00;92.70;;;;;;4937432;29;20405;-72
2023/12/27 11:13:13;;;;;;;0.30;0.30;;;14.70;92.40;;;;;;4936798;29;20418;-70
2023/12/27 11:15:44;;;;;;;0.30;0.30;;;14.30;92.70;;;;;;4936524;29;20479;-72
2023/12/27 11:18:11;;;;;;;0.40;0.40;;;14.00;93.60;;;;;;4927679;29;20493;-71
2023/12/27 11:20:40;;;;;;;0.30;0.20;;;13.60;94.40;;;;;;4918350;29;20422;-71
2023/12/27 11:23:07;;;;;;;0.30;0.30;;;13.50;94.00;;;;;;4918019;29;20414;-72
2023/12/27 11:25:32;;;;;;;0.30;0.30;;;13.30;93.90;;;;;;4917442;29;20445;-70
2023/12/27 11:28:02;;;;;;;0.30;0.20;;;13.10;93.90;;;;;;4926046;29;20490;-71
2023/12/27 11:30:28;;;;;;;0.50;0.50;;;13.00;94.50;;;;;;4936953;29;20212;-70
2023/12/27 11:32:54;;;;;;;0.30;0.30;;;12.90;93.90;;;;;;4936331;29;20868;-70
2023/12/27 11:35:32;;;;;;;0.30;0.30;;;12.80;94.30;;;;;;4915975;29;20529;-69
2023/12/27 11:38:24;;;;;;;0.30;0.20;;;12.70;94.20;;;;;;4917686;29;20508;-71
2023/12/27 11:41:00;;;;;;;0.30;0.30;;;12.60;94.60;;;;;;4932317;29;20774;-70
2023/12/27 11:43:46;;;;;;;0.30;0.30;;;12.60;95.00;;;;;;4936603;29;20408;-70
2023/12/27 11:46:13;;;;;;;0.30;0.30;;;12.50;95.10;;;;;;4935863;29;20556;-70
2023/12/27 11:48:38;;;;;;;0.30;0.30;;;12.50;94.80;;;;;;4936556;29;20403;-72
2023/12/27 11:51:27;;;;;;;0.30;0.30;;;12.40;94.70;;;;;;4919611;29;20406;-71
2023/12/27 11:53:54;;;;;;;0.30;0.20;;;12.40;94.70;;;;;;4916942;29;20512;-72
2023/12/27 11:56:21;;;;;;;0.50;0.47;;;12.50;94.60;;;;;;4917112;29;20455;-71
2023/12/27 11:58:49;;;;;;;0.70;0.70;;;12.50;94.40;;;;;;4917443;29;20417;-72
2023/12/27 12:01:29;;;;;;;0.30;0.30;;;12.50;94.40;;;;;;4917485;29;20414;-70
2023/12/27 12:04:02;;;;;;;0.43;0.43;;;12.60;94.30;;;;;;4932353;29;20424;-69
2023/12/27 12:06:46;;;;;;;0.40;0.40;;;12.60;94.60;;;;;;4935895;29;20472;-70
2023/12/27 12:09:13;;;;;;;0.30;0.30;;;12.60;95.00;;;;;;4935971;29;20423;-70
2023/12/27 12:11:44;;;;;;;0.30;0.30;;;12.70;94.50;;;;;;4936487;29;20776;-71
2023/12/27 12:14:10;;;;;;;0.40;0.40;;;12.70;94.50;;;;;;4935765;29;20896;-72
2023/12/27 12:16:36;;;;;;;0.30;0.20;;;12.80;94.30;;;;;;4935979;29;20469;-72
2023/12/27 12:19:03;;;;;;;0.30;0.30;;;12.80;94.50;;;;;;4934573;29;20196;-70
2023/12/27 12:21:31;;;;;;;0.40;0.40;;;12.90;94.00;;;;;;4934848;29;20429;-73
2023/12/27 12:23:57;;;;;;;0.30;0.20;;;12.90;93.70;;;;;;4920226;29;20908;-72
2023/12/27 12:26:23;;;;;;;0.30;0.30;;;12.80;93.60;;;;;;4915526;29;20557;-70
2023/12/27 12:28:56;;;;;;;0.30;0.30;;;12.90;94.00;;;;;;4917017;29;20433;-72
2023/12/27 12:31:21;;;;;;;0.30;0.20;;;12.90;93.80;;;;;;4917096;29;20414;-72
2023/12/27 12:33:47;;;;;;;0.30;0.20;;;12.90;93.70;;;;;;4916949;29;20466;-71
2023/12/27 12:36:13;;;;;;;0.30;0.30;;;13.00;93.30;;;;;;4932211;29;20265;-69
2023/12/27 12:38:39;;;;;;;0.30;0.20;;;13.00;93.30;;;;;;4936072;29;20272;-72
2023/12/27 12:41:05;;;;;;;0.30;0.30;;;13.00;93.30;;;;;;4934390;29;20429;-71
2023/12/27 12:43:31;;;;;;;0.30;0.30;;;13.00;93.30;;;;;;4935913;29;20265;-70
2023/12/27 12:45:58;;;;;;;0.40;0.40;;;13.00;93.20;;;;;;4935057;29;20804;-71
2023/12/27 12:48:25;;;;;;;0.30;0.30;;;13.00;93.20;;;;;;4934438;29;20414;-72
2023/12/27 12:51:09;;;;;;;0.30;0.20;;;13.00;92.60;;;;;;4935087;29;20969;-70
2023/12/27 12:53:35;;;;;;;0.30;0.20;;;13.00;92.70;;;;;;4935901;29;20398;-72
2023/12/27 12:56:01;;;;;;;0.53;0.53;;;13.10;92.40;;;;;;4934567;29;20519;-71
2023/12/27 12:58:27;;;;;;;0.30;0.20;;;13.10;92.40;;;;;;4934920;29;20184;-69
2023/12/27 13:00:52;;;;;;;0.30;0.30;;;13.00;92.60;;;;;;4935147;29;20188;-70
2023/12/27 13:03:18;;;;;;;0.30;0.30;;;13.10;92.50;;;;;;4935795;29;20184;-73
2023/12/27 13:05:44;;;;;;;0.37;0.37;;;13.10;92.50;;;;;;4937053;29;20212;-72
2023/12/27 13:08:14;;;;;;;0.30;0.30;;;13.10;92.20;;;;;;4939504;29;20432;-71
2023/12/27 13:10:40;;;;;;;0.70;0.70;;;13.10;92.40;;;;;;4932357;29;20223;-69
2023/12/27 13:13:07;;;;;;;0.30;0.30;;;13.10;92.70;;;;;;4920479;29;20512;-73
2023/12/27 13:15:32;;;;;;;0.30;0.20;;;13.20;93.20;;;;;;4924148;29;20625;-71
2023/12/27 13:17:58;;;;;;;0.30;0.30;;;13.20;93.10;;;;;;4939209;29;20503;-70
2023/12/27 13:20:24;;;;;;;0.30;0.20;;;13.10;93.30;;;;;;4937793;29;20569;-72
2023/12/27 13:22:49;;;;;;;0.30;0.20;;;13.00;93.80;;;;;;4939452;29;20549;-71
2023/12/27 13:25:16;;;;;;;0.30;0.30;;;13.00;93.70;;;;;;4934747;29;20354;-71
2023/12/27 13:27:42;;;;;;;2.73;1.73;;;13.00;93.60;;;;;;4920397;29;20256;-71
2023/12/27 13:30:08;;;;;;;0.30;0.20;;;13.00;93.80;;;;;;4919103;29;20488;-71
2023/12/27 13:32:35;;;;;;;0.30;0.30;;;12.90;93.60;;;;;;4920429;29;20954;-71
2023/12/27 13:35:03;;;;;;;0.30;0.30;;;12.90;93.80;;;;;;4920001;29;20426;-71
2023/12/27 13:37:28;;;;;;;0.30;0.20;;;12.80;93.90;;;;;;4920219;29;20498;-70
2023/12/27 13:39:54;;;;;;;0.30;0.30;;;12.80;94.10;;;;;;4928981;29;20506;-70
2023/12/27 13:42:19;;;;;;;0.30;0.30;;;12.70;94.50;;;;;;4939091;29;20661;-71
2023/12/27 13:44:45;;;;;;;0.30;0.20;;;12.60;95.00;;;;;;4937028;29;20177;-71
2023/12/27 13:47:11;;;;;;;0.30;0.30;;;12.50;95.60;;;;;;4938874;29;20200;-71
2023/12/27 13:49:36;;;;;;;0.50;0.50;;;12.50;96.10;;;;;;4931411;29;20654;-70
2023/12/27 13:52:02;;;;;;;0.30;0.30;;;12.40;96.20;;;;;;4920017;29;20268;-72
2023/12/27 13:54:28;;;;;;;0.30;0.30;;;12.40;96.20;;;;;;4925740;29;20174;-72
2023/12/27 13:56:54;;;;;;;0.30;0.30;;;12.30;96.10;;;;;;4938669;29;20792;-70
2023/12/27 13:59:19;;;;;;;0.30;0.20;;;12.30;96.20;;;;;;4934251;29;20185;-71
2023/12/27 14:01:48;;;;;;;0.40;0.40;;;12.20;96.20;;;;;;4920692;29;20177;-71
2023/12/27 14:04:14;;;;;;;0.30;0.30;;;12.20;96.40;;;;;;4920460;29;20174;-72
2023/12/27 14:06:39;;;;;;;0.30;0.30;;;12.20;96.50;;;;;;4919639;29;20476;-70
2023/12/27 14:09:08;;;;;;;0.30;0.30;;;12.10;97.00;;;;;;4923005;29;20224;-70
2023/12/27 14:11:34;;;;;;;0.30;0.20;;;12.10;97.00;;;;;;4938641;29;20172;-70
2023/12/27 14:14:00;;;;;;;0.30;0.30;;;12.00;97.00;;;;;;4936987;29;20776;-72
2023/12/27 14:16:26;;;;;;;0.30;0.20;;;12.00;97.00;;;;;;4936934;29;20201;-71
2023/12/27 14:18:55;;;;;;;0.30;0.30;;;11.90;97.20;;;;;;4937276;29;20832;-71
2023/12/27 14:21:21;;;;;;;0.37;0.37;;;11.90;97.30;;;;;;4919599;29;20421;-72
2023/12/27 14:23:46;;;;;;;0.40;0.40;;;11.80;97.50;;;;;;4918295;29;20437;-72
2023/12/27 14:26:13;;;;;;;0.30;0.20;;;11.80;97.70;;;;;;4923166;29;20461;-71
2023/12/27 14:28:39;;;;;;;0.40;0.40;;;11.70;97.90;;;;;;4938330;29;20294;-70
2023/12/27 14:31:06;;;;;;;0.30;0.30;;;11.70;98.00;;;;;;4936684;29;20779;-71
2023/12/27 14:33:31;;;;;;;0.30;0.20;;;11.60;98.10;;;;;;4938053;29;20176;-72
2023/12/27 14:35:57;;;;;;;0.30;0.30;;;11.60;98.30;;;;;;4937148;29;21008;-72
2023/12/27 14:38:23;;;;;;;0.40;0.40;;;11.50;98.50;;;;;;4938015;29;20187;-71
2023/12/27 14:40:49;;;;;;;0.40;0.40;;;11.40;98.70;;;;;;4935583;29;20620;-70
2023/12/27 14:43:14;;;;;;;0.30;0.30;;;11.40;98.90;;;;;;4918908;29;20446;-71
2023/12/27 14:45:40;;;;;;;0.30;0.30;;;11.30;99.10;;;;;;4918257;29;20206;-72
2023/12/27 14:48:06;;;;;;;0.30;0.30;;;11.30;99.20;;;;;;4919075;29;20653;-72
2023/12/27 14:50:31;;;;;;;0.30;0.30;;;11.30;99.40;;;;;;4918880;29;20173;-71
2023/12/27 14:52:57;;;;;;;0.30;0.20;;;11.20;99.50;;;;;;4918676;29;20181;-71
2023/12/27 14:55:22;;;;;;;0.30;0.20;;;11.10;99.60;;;;;;4916990;29;20544;-70
2023/12/27 14:57:49;;;;;;;1.47;0.60;;;11.10;99.90;;;;;;4935658;29;20711;-71
2023/12/27 15:00:15;;;;;;;0.30;0.30;;;11.00;99.90;;;;;;4937660;29;20175;-70
2023/12/27 15:02:41;;;;;;;0.30;0.30;;;10.90;99.90;;;;;;4921332;29;20416;-71
2023/12/27 15:05:08;;;;;;;0.30;0.30;;;10.90;99.90;;;;;;4917957;29;20454;-71
2023/12/27 15:07:33;;;;;;;0.30;0.30;;;10.90;99.90;;;;;;4932919;29;20580;-70
2023/12/27 15:10:02;;;;;;;0.60;0.40;;;10.80;99.90;;;;;;4937398;29;20406;-70
2023/12/27 15:12:28;;;;;;;0.33;0.33;;;10.80;99.90;;;;;;4937102;29;20607;-70
2023/12/27 15:14:56;;;;;;;0.30;0.30;;;10.80;99.90;;;;;;4936595;29;20450;-70
2023/12/27 15:17:23;;;;;;;0.33;0.33;;;10.70;99.90;;;;;;4937444;29;20297;-70
2023/12/27 15:19:48;;;;;;;0.30;0.20;;;10.60;99.90;;;;;;4936945;29;20414;-71
2023/12/27 15:22:14;;;;;;;0.30;0.30;;;10.50;99.90;;;;;;4937540;29;20407;-71
2023/12/27 15:24:40;;;;;;;0.40;0.40;;;10.40;99.90;;;;;;4922006;29;20190;-71
2023/12/27 15:27:09;;;;;;;0.30;0.30;;;10.40;99.90;;;;;;4917957;29;20604;-71
2023/12/27 15:29:40;;;;;;;0.40;0.40;;;10.30;99.90;;;;;;4917256;29;20173;-69
2023/12/27 15:32:06;;;;;;;0.30;0.30;;;10.20;99.90;;;;;;4917973;29;20393;-72
2023/12/27 15:34:32;;;;;;;0.30;0.30;;;10.20;99.90;;;;;;4916363;29;20533;-70
2023/12/27 15:36:58;;;;;;;0.30;0.20;;;10.10;99.90;;;;;;4918064;29;20299;-70
2023/12/27 15:39:23;;;;;;;0.30;0.20;;;10.00;99.90;;;;;;4918213;29;20635;-70
2023/12/27 15:41:49;;;;;;;0.30;0.30;;;10.00;99.90;;;;;;4918124;29;20179;-71
2023/12/27 15:44:15;;;;;;;0.30;0.30;;;9.90;99.90;;;;;;4917419;29;20266;-69
2023/12/27 15:46:40;;;;;;;0.37;0.37;;;9.80;99.90;;;;;;4917693;29;20695;-71
2023/12/27 15:49:06;;;;;;;0.30;0.30;;;9.80;99.90;;;;;;4916596;29;20181;-71
2023/12/27 15:51:37;;;;;;;0.30;0.30;;;9.70;99.90;;;;;;4917657;29;20173;-71
2023/12/27 15:54:04;;;;;;;0.43;0.43;;;9.60;99.90;;;;;;4917604;29;20175;-71
2023/12/27 15:56:44;;;;;;;0.30;0.30;;;9.60;99.90;;;;;;4917533;29;20233;-70
2023/12/27 15:59:12;;;;;;;0.40;0.40;;;9.60;99.90;;;;;;4917519;29;20506;-69
2023/12/27 16:01:38;;;;;;;0.40;0.40;;;9.50;99.90;;;;;;4917326;29;20250;-70
2023/12/27 16:04:05;;;;;;;0.40;0.40;;;9.50;99.90;;;;;;4928155;29;20194;-72
2023/12/27 16:06:31;;;;;;;0.30;0.30;;;9.40;99.90;;;;;;4936164;29;20220;-71
2023/12/27 16:08:58;;;;;;;0.30;0.30;;;9.40;99.90;;;;;;4936164;29;20228;-70
2023/12/27 16:11:25;;;;;;;0.30;0.20;;;9.40;99.90;;;;;;4934974;29;20265;-71
2023/12/27 16:13:51;;;;;;;0.30;0.30;;;9.40;99.90;;;;;;4936036;29;20183;-72
2023/12/27 16:16:17;;;;;;;0.30;0.30;;;9.40;99.90;;;;;;4934557;29;20273;-71
2023/12/27 16:18:43;;;;;;;0.30;0.30;;;9.50;99.90;;;;;;4936089;29;20446;-71
2023/12/27 16:21:15;;;;;;;0.30;0.30;;;9.40;99.90;;;;;;4936324;29;20550;-71
2023/12/27 16:23:41;;;;;;;0.30;0.30;;;9.40;99.90;;;;;;4928281;29;20294;-71
2023/12/27 16:26:07;;;;;;;0.30;0.30;;;9.40;99.90;;;;;;4915673;29;20218;-69
2023/12/27 16:28:34;;;;;;;0.30;0.20;;;9.30;99.90;;;;;;4917102;29;20175;-71
2023/12/27 16:31:01;;;;;;;0.30;0.30;;;9.20;99.90;;;;;;4917182;29;20170;-71
2023/12/27 16:33:27;;;;;;;0.30;0.30;;;9.20;99.90;;;;;;4917106;29;20174;-72
2023/12/27 16:35:55;;;;;;;0.60;0.60;;;9.10;99.90;;;;;;4916834;29;20201;-71
2023/12/27 16:38:21;;;;;;;0.30;0.30;;;9.00;99.90;;;;;;4917152;29;20225;-70
2023/12/27 16:40:46;;;;;;;0.30;0.30;;;9.00;99.90;;;;;;4933433;29;20225;-71
2023/12/27 16:43:21;;;;;;;0.30;0.30;;;9.00;99.90;;;;;;4941923;29;20183;-70
2023/12/27 16:45:47;;;;;;;0.30;0.30;;;8.90;99.90;;;;;;4941697;29;20201;-70
2023/12/27 16:48:15;;;;;;;0.30;0.30;;;8.90;99.90;;;;;;4942315;29;20180;-71
2023/12/27 16:50:43;;;;;;;0.32;0.32;;;8.80;99.90;;;;;;4942418;29;20530;-70
2023/12/27 16:53:08;;;;;;;0.30;0.30;;;8.80;99.90;;;;;;4942224;29;20188;-71
2023/12/27 16:55:34;;;;;;;0.30;0.30;;;8.70;99.90;;;;;;4941925;29;20194;-72
2023/12/27 16:58:00;;;;;;;0.30;0.30;;;8.70;99.90;;;;;;4941961;29;20185;-71
2023/12/27 17:00:26;;;;;;;0.30;0.30;;;8.70;99.90;;;;;;4942323;29;20263;-71
2023/12/27 17:02:51;;;;;;;0.30;0.30;;;8.60;99.90;;;;;;4928512;29;20257;-71
2023/12/27 17:05:17;;;;;;;0.30;0.30;;;8.50;99.90;;;;;;4922744;29;20569;-70
2023/12/27 17:07:43;;;;;;;0.30;0.30;;;8.50;99.90;;;;;;4922920;29;20186;-71
2023/12/27 17:10:09;;;;;;;0.30;0.30;;;8.40;99.90;;;;;;4923734;29;20508;-71
2023/12/27 17:12:39;;;;;;;0.40;0.40;;;8.40;99.90;;;;;;4923226;29;20775;-71
2023/12/27 17:15:07;;;;;;;0.35;0.35;;;8.30;99.90;;;;;;4922841;29;20592;-71
2023/12/27 17:17:32;;;;;;;0.40;0.40;;;8.30;99.90;;;;;;4929556;29;20210;-70
2023/12/27 17:20:00;;;;;;;0.40;0.40;;;8.30;99.90;;;;;;4942138;29;20231;-70
2023/12/27 17:22:26;;;;;;;0.30;0.30;;;8.20;99.90;;;;;;4941978;29;20642;-70
2023/12/27 17:24:52;;;;;;;0.30;0.30;;;8.20;99.90;;;;;;4941383;29;20537;-71
2023/12/27 17:27:20;;;;;;;0.50;0.50;;;8.10;99.90;;;;;;4924923;29;20182;-70
2023/12/27 17:29:46;;;;;;;0.30;0.30;;;8.10;99.90;;;;;;4923126;29;20470;-70
2023/12/27 17:32:11;;;;;;;0.30;0.30;;;8.00;99.90;;;;;;4937998;29;20696;-71
2023/12/27 17:34:37;;;;;;;0.30;0.30;;;8.00;99.90;;;;;;4934412;29;20505;-72
2023/12/27 17:37:03;;;;;;;0.30;0.30;;;7.90;99.90;;;;;;4923002;29;20274;-71
2023/12/27 17:39:28;;;;;;;0.30;0.30;;;7.80;99.90;;;;;;4922980;29;20418;-71
2023/12/27 17:41:54;;;;;;;0.30;0.30;;;7.80;99.90;;;;;;4922800;29;20426;-71
2023/12/27 17:44:21;;;;;;;0.40;0.40;;;7.70;99.90;;;;;;4926432;29;20216;-71
2023/12/27 17:46:47;;;;;;;1.00;1.00;;;7.70;99.90;;;;;;4921302;29;21064;-70
2023/12/27 17:49:14;;;;;;;2.20;2.10;;;7.80;99.90;;;;;;4922846;29;20205;-70
2023/12/27 17:51:39;;;;;;;0.55;0.55;;;7.80;99.90;;;;;;4920570;29;20737;-71
2023/12/27 17:54:05;;;;;;;0.30;0.30;;;7.80;99.90;;;;;;4938264;29;20177;-71
2023/12/27 17:56:31;;;;;;;0.67;0.67;;;7.80;99.90;;;;;;4938504;29;20552;-71
2023/12/27 17:58:57;;;;;;;0.30;0.30;;;7.80;99.90;;;;;;4938338;29;20261;-71